Time;durP1;ratioP1;P1;durP2;ratioP2;P2;SDS_P1;SDS_P2;PMS_P1;PMS_P2;Temp;Humidity;BMP_temperature;BMP_pressure;BME280_temperature;BME280_humidity;BME280_pressure;Samples;Min_cycle;Max_cycle;Signal;HPM_P1;HPM_P2
2022/06/09 00:02:01;;;;;;;10.63;9.63;;;24.00;59.70;;;;;;5084191;28;20048;-60
2022/06/09 00:04:39;;;;;;;10.88;9.52;;;24.00;60.00;;;;;;5083707;28;20047;-59
2022/06/09 00:07:10;;;;;;;10.77;9.77;;;24.00;60.20;;;;;;5086188;28;20031;-60
2022/06/09 00:09:45;;;;;;;12.60;9.98;;;24.00;60.60;;;;;;5081031;28;20594;-60
2022/06/09 00:12:11;;;;;;;10.82;9.73;;;24.00;61.00;;;;;;5082191;28;20366;-60
2022/06/09 00:14:37;;;;;;;12.23;11.00;;;24.00;61.00;;;;;;5088445;28;20032;-60
2022/06/09 00:17:05;;;;;;;12.38;11.07;;;24.00;61.30;;;;;;5084323;28;20028;-61
2022/06/09 00:19:31;;;;;;;11.30;10.10;;;24.00;61.50;;;;;;5086979;28;20495;-59
2022/06/09 00:21:57;;;;;;;13.90;11.65;;;24.00;61.90;;;;;;5090133;28;20519;-60
2022/06/09 00:24:23;;;;;;;9.18;8.27;;;23.90;62.20;;;;;;5081558;28;20024;-60
2022/06/09 00:26:49;;;;;;;9.82;8.73;;;23.80;62.40;;;;;;5085521;28;20238;-60
2022/06/09 00:29:15;;;;;;;11.93;8.35;;;23.80;62.60;;;;;;5077823;28;20485;-60
2022/06/09 00:31:40;;;;;;;9.80;7.68;;;23.80;62.40;;;;;;5074154;28;20036;-60
2022/06/09 00:34:06;;;;;;;10.70;8.55;;;23.80;62.30;;;;;;5083316;28;20111;-60
2022/06/09 00:36:32;;;;;;;14.88;10.18;;;23.80;62.50;;;;;;5083039;28;20441;-57
2022/06/09 00:38:59;;;;;;;10.68;7.75;;;23.80;63.00;;;;;;5081926;28;20028;-59
2022/06/09 00:41:26;;;;;;;11.25;10.15;;;23.70;62.80;;;;;;5075914;28;20036;-61
2022/06/09 00:43:52;;;;;;;9.52;8.52;;;23.70;62.50;;;;;;5064658;28;20052;-59
2022/06/09 00:46:25;;;;;;;9.90;8.27;;;23.70;62.20;;;;;;5085651;28;20079;-60
2022/06/09 00:49:02;;;;;;;10.07;9.07;;;23.80;62.30;;;;;;5080519;28;20054;-61
2022/06/09 00:51:41;;;;;;;9.75;8.82;;;23.80;62.10;;;;;;5082850;28;20562;-59
2022/06/09 00:54:16;;;;;;;9.27;8.43;;;23.70;62.20;;;;;;5087882;28;20036;-59
2022/06/09 00:57:07;;;;;;;8.05;7.25;;;23.60;62.20;;;;;;5083442;28;20457;-58
2022/06/09 00:59:35;;;;;;;8.65;7.75;;;23.60;62.10;;;;;;5081220;28;20032;-59
2022/06/09 01:02:06;;;;;;;9.70;7.45;;;23.60;62.00;;;;;;5085847;28;20033;-60
2022/06/09 01:04:33;;;;;;;11.20;8.23;;;23.60;61.90;;;;;;5085075;28;20028;-59
2022/06/09 01:07:08;;;;;;;9.55;7.70;;;23.60;61.80;;;;;;5085141;28;20054;-60
2022/06/09 01:09:35;;;;;;;9.07;8.15;;;23.60;61.80;;;;;;5076049;28;20031;-60
2022/06/09 01:12:01;;;;;;;10.00;7.22;;;23.60;61.70;;;;;;5076473;28;20024;-61
2022/06/09 01:14:33;;;;;;;8.93;7.90;;;23.60;61.70;;;;;;5084257;28;20020;-60
2022/06/09 01:17:29;;;;;;;10.68;7.55;;;23.60;61.70;;;;;;5089976;28;20040;-61
2022/06/09 01:20:15;;;;;;;9.10;8.15;;;23.60;61.60;;;;;;5067444;28;20083;-60
2022/06/09 01:23:02;;;;;;;8.23;7.40;;;23.50;61.50;;;;;;5083284;28;20458;-60
2022/06/09 01:26:20;;;;;;;9.95;8.75;;;23.50;61.80;;;;;;5085167;28;20377;-60
2022/06/09 01:28:56;;;;;;;9.43;8.48;;;23.60;61.90;;;;;;5072596;28;20051;-60
2022/06/09 01:31:28;;;;;;;11.00;9.90;;;23.60;61.90;;;;;;5085583;28;20077;-59
2022/06/09 01:34:19;;;;;;;10.90;8.70;;;23.60;62.20;;;;;;5092881;28;20459;-59
2022/06/09 01:37:06;;;;;;;11.23;8.85;;;23.60;62.60;;;;;;5082168;28;20036;-60
2022/06/09 01:39:49;;;;;;;8.80;7.90;;;23.60;62.40;;;;;;5087554;28;20032;-59
2022/06/09 01:42:32;;;;;;;8.50;5.53;;;23.50;62.60;;;;;;5090392;28;20077;-63
2022/06/09 01:45:02;;;;;;;6.57;5.80;;;23.40;62.80;;;;;;5066053;28;20047;-62
2022/06/09 01:47:41;;;;;;;6.00;5.40;;;23.40;63.00;;;;;;5064216;28;20127;-63
2022/06/09 01:50:12;;;;;;;5.05;4.55;;;23.30;63.20;;;;;;5067604;28;20050;-63
2022/06/09 01:52:42;;;;;;;6.88;4.07;;;23.20;63.60;;;;;;5061290;28;20466;-60
2022/06/09 01:55:12;;;;;;;6.63;3.85;;;23.10;63.50;;;;;;5063715;28;20043;-60
2022/06/09 01:57:40;;;;;;;10.95;4.80;;;22.90;63.80;;;;;;5045190;28;20055;-60
2022/06/09 02:00:15;;;;;;;10.77;5.15;;;22.70;65.00;;;;;;5064659;28;20037;-60
2022/06/09 02:03:05;;;;;;;10.23;4.18;;;22.60;66.40;;;;;;5062445;28;20108;-61
2022/06/09 02:05:37;;;;;;;7.03;4.03;;;22.40;67.10;;;;;;5065353;28;20037;-62
2022/06/09 02:08:08;;;;;;;9.18;4.13;;;22.00;69.00;;;;;;5060026;28;20029;-61
2022/06/09 02:10:39;;;;;;;7.15;3.67;;;21.70;70.00;;;;;;5060763;28;20028;-63
2022/06/09 02:13:11;;;;;;;9.88;4.13;;;21.60;70.30;;;;;;5060264;28;20036;-61
2022/06/09 02:15:44;;;;;;;9.18;3.63;;;21.50;70.40;;;;;;5059734;28;20020;-57
2022/06/09 02:18:13;;;;;;;4.57;2.70;;;21.40;70.10;;;;;;5066805;28;20537;-63
2022/06/09 02:20:44;;;;;;;8.23;2.88;;;21.30;69.40;;;;;;5071023;28;20486;-64
2022/06/09 02:23:14;;;;;;;3.58;2.22;;;21.30;69.10;;;;;;5043819;28;20470;-64
2022/06/09 02:25:40;;;;;;;5.30;1.98;;;21.30;68.70;;;;;;5060785;28;20119;-63
2022/06/09 02:28:07;;;;;;;6.57;2.00;;;21.30;68.40;;;;;;5049214;28;20418;-62
2022/06/09 02:30:35;;;;;;;4.43;1.83;;;21.30;67.90;;;;;;5072084;28;20037;-62
2022/06/09 02:33:01;;;;;;;3.00;1.65;;;21.20;67.60;;;;;;5050641;28;20055;-61
2022/06/09 02:35:27;;;;;;;5.80;1.63;;;21.20;67.60;;;;;;5055934;28;20025;-63
2022/06/09 02:37:53;;;;;;;6.47;1.60;;;21.10;67.00;;;;;;5066461;28;20028;-64
2022/06/09 02:40:18;;;;;;;3.90;1.70;;;21.10;67.10;;;;;;5071140;28;20040;-63
2022/06/09 02:42:44;;;;;;;5.43;1.70;;;21.10;66.70;;;;;;5067238;28;20037;-63
2022/06/09 02:45:14;;;;;;;3.72;1.80;;;21.00;66.80;;;;;;5085421;28;20048;-62
2022/06/09 02:47:40;;;;;;;5.03;1.63;;;20.90;67.20;;;;;;5090454;28;20024;-62
2022/06/09 02:50:06;;;;;;;3.72;1.45;;;20.90;66.60;;;;;;5087267;28;20460;-63
2022/06/09 02:52:32;;;;;;;4.72;1.70;;;20.80;66.90;;;;;;5082512;28;20480;-64
2022/06/09 02:54:58;;;;;;;4.03;1.90;;;20.80;66.50;;;;;;5083830;28;20570;-64
2022/06/09 02:57:24;;;;;;;3.70;1.33;;;20.70;66.80;;;;;;5089353;28;20117;-66
2022/06/09 02:59:53;;;;;;;3.30;1.65;;;20.70;67.20;;;;;;5082265;28;20111;-63
2022/06/09 03:02:19;;;;;;;5.40;1.42;;;20.60;67.70;;;;;;5077304;28;20433;-64
2022/06/09 03:04:45;;;;;;;3.17;1.65;;;20.60;67.30;;;;;;5080795;28;20020;-64
2022/06/09 03:07:12;;;;;;;3.78;1.35;;;20.40;67.40;;;;;;5089128;28;20034;-65
2022/06/09 03:09:38;;;;;;;3.95;1.90;;;20.40;68.30;;;;;;5089633;28;20115;-64
2022/06/09 03:12:04;;;;;;;4.78;1.33;;;20.40;67.90;;;;;;5083475;28;20099;-64
2022/06/09 03:14:30;;;;;;;4.72;1.60;;;20.40;67.60;;;;;;5081014;28;20051;-64
2022/06/09 03:16:56;;;;;;;2.83;1.30;;;20.40;67.60;;;;;;5081913;28;20059;-64
2022/06/09 03:19:22;;;;;;;3.28;1.40;;;20.30;67.90;;;;;;5084940;28;20040;-66
2022/06/09 03:21:47;;;;;;;5.32;1.42;;;20.30;68.10;;;;;;5082867;28;20586;-64
2022/06/09 03:24:13;;;;;;;4.82;1.50;;;20.20;68.10;;;;;;5079578;28;20066;-64
2022/06/09 03:26:39;;;;;;;3.40;1.40;;;20.20;67.80;;;;;;5083400;28;20110;-65
2022/06/09 03:29:04;;;;;;;5.18;1.35;;;20.20;67.60;;;;;;5088062;28;20088;-64
2022/06/09 03:31:30;;;;;;;2.92;1.30;;;20.20;67.90;;;;;;5086372;28;20039;-64
2022/06/09 03:33:56;;;;;;;3.28;1.48;;;20.20;67.50;;;;;;5086618;28;20479;-64
2022/06/09 03:36:22;;;;;;;4.07;1.25;;;20.00;67.70;;;;;;5076447;28;20039;-64
2022/06/09 03:38:47;;;;;;;3.05;1.40;;;20.10;67.50;;;;;;5077147;28;20028;-64
2022/06/09 03:41:13;;;;;;;5.55;1.55;;;20.00;67.60;;;;;;5078206;28;20048;-64
2022/06/09 03:43:39;;;;;;;4.13;1.45;;;20.10;67.70;;;;;;5072884;28;20044;-64
2022/06/09 03:46:05;;;;;;;4.47;1.55;;;20.10;67.40;;;;;;5064611;28;20036;-64
2022/06/09 03:48:31;;;;;;;3.72;1.20;;;20.20;67.10;;;;;;5068488;28;20035;-64
2022/06/09 03:50:57;;;;;;;5.53;1.23;;;20.20;67.20;;;;;;5065087;28;20481;-66
2022/06/09 03:53:22;;;;;;;4.13;1.50;;;20.20;67.20;;;;;;5066198;28;20031;-65
2022/06/09 03:55:48;;;;;;;2.47;1.15;;;20.30;67.00;;;;;;5071115;28;20029;-65
2022/06/09 03:58:14;;;;;;;5.43;1.33;;;20.40;66.60;;;;;;5060263;28;20029;-65
2022/06/09 04:00:40;;;;;;;4.47;1.30;;;20.40;67.00;;;;;;5070172;28;20037;-64
2022/06/09 04:03:06;;;;;;;2.67;1.38;;;20.40;66.10;;;;;;5057920;28;20479;-64
2022/06/09 04:05:32;;;;;;;3.65;1.08;;;20.50;65.80;;;;;;5052294;28;20029;-65
2022/06/09 04:07:59;;;;;;;8.50;1.60;;;20.60;65.40;;;;;;5060927;28;20020;-63
2022/06/09 04:10:28;;;;;;;2.55;1.45;;;20.60;65.30;;;;;;5065817;28;20025;-65
2022/06/09 04:12:54;;;;;;;5.68;1.20;;;20.60;65.20;;;;;;5060724;28;20540;-62
2022/06/09 04:15:20;;;;;;;2.80;1.33;;;20.60;64.90;;;;;;5060704;28;20103;-62
2022/06/09 04:17:47;;;;;;;1.75;1.20;;;20.60;65.00;;;;;;5066497;28;20048;-62
2022/06/09 04:20:15;;;;;;;2.03;1.23;;;20.60;64.70;;;;;;5068469;28;20491;-63
2022/06/09 04:22:41;;;;;;;3.55;1.30;;;20.60;64.40;;;;;;5064661;28;20032;-64
2022/06/09 04:25:07;;;;;;;3.13;1.42;;;20.60;64.50;;;;;;5066407;28;20411;-63
2022/06/09 04:27:33;;;;;;;3.30;1.30;;;20.50;64.90;;;;;;5044509;28;20036;-63
2022/06/09 04:29:58;;;;;;;4.13;1.30;;;20.60;64.70;;;;;;5059400;28;20431;-64
2022/06/09 04:32:25;;;;;;;2.75;1.33;;;20.60;64.70;;;;;;5048989;28;20028;-62
2022/06/09 04:34:51;;;;;;;3.95;1.33;;;20.60;64.60;;;;;;5057001;28;20032;-62
2022/06/09 04:37:16;;;;;;;2.45;1.27;;;20.60;64.50;;;;;;5050298;28;20041;-65
2022/06/09 04:39:42;;;;;;;2.28;1.25;;;20.60;64.50;;;;;;5066236;28;20025;-68
2022/06/09 04:42:08;;;;;;;2.47;1.38;;;20.50;64.40;;;;;;5063148;28;20070;-65
2022/06/09 04:44:35;;;;;;;3.53;1.52;;;20.50;64.80;;;;;;5069012;28;20048;-64
2022/06/09 04:47:01;;;;;;;3.30;1.50;;;20.50;64.90;;;;;;5055045;28;20107;-65
2022/06/09 04:49:26;;;;;;;3.15;1.40;;;20.40;65.00;;;;;;5060578;28;20061;-64
2022/06/09 04:51:52;;;;;;;4.78;1.30;;;20.40;65.20;;;;;;5064636;28;20110;-67
2022/06/09 04:54:18;;;;;;;3.20;1.02;;;20.50;64.80;;;;;;5072389;28;20127;-64
2022/06/09 04:56:45;;;;;;;2.83;1.15;;;20.40;65.40;;;;;;5044684;28;20060;-64
2022/06/09 04:59:11;;;;;;;4.43;1.40;;;20.40;65.10;;;;;;5062406;28;20047;-65
2022/06/09 05:01:38;;;;;;;4.53;1.65;;;20.40;65.40;;;;;;5066642;28;20024;-65
2022/06/09 05:04:04;;;;;;;3.67;1.38;;;20.50;65.00;;;;;;5066747;28;20021;-64
2022/06/09 05:06:29;;;;;;;4.22;1.45;;;20.50;64.80;;;;;;5061377;28;20028;-64
2022/06/09 05:08:56;;;;;;;4.30;1.42;;;20.50;65.00;;;;;;5067215;28;20035;-63
2022/06/09 05:11:23;;;;;;;3.97;1.40;;;20.50;64.70;;;;;;5044915;28;20033;-65
2022/06/09 05:13:49;;;;;;;2.17;1.45;;;20.50;65.10;;;;;;5061057;28;20051;-61
2022/06/09 05:16:17;;;;;;;5.47;1.75;;;20.50;65.20;;;;;;5061339;28;20462;-64
2022/06/09 05:18:42;;;;;;;4.90;1.40;;;20.40;65.40;;;;;;5069646;28;20033;-59
2022/06/09 05:21:09;;;;;;;4.07;1.52;;;20.30;65.90;;;;;;5051019;28;20178;-59
2022/06/09 05:23:37;;;;;;;5.65;1.85;;;20.30;66.40;;;;;;5071467;28;20376;-60
2022/06/09 05:26:05;;;;;;;3.35;1.55;;;20.20;66.50;;;;;;5065293;28;20093;-63
2022/06/09 05:28:32;;;;;;;6.07;1.70;;;20.30;66.30;;;;;;5067363;28;20374;-62
2022/06/09 05:30:58;;;;;;;4.13;1.73;;;20.20;66.50;;;;;;5064399;28;20024;-62
2022/06/09 05:33:24;;;;;;;4.45;1.50;;;20.20;67.00;;;;;;5046640;28;20029;-64
2022/06/09 05:35:50;;;;;;;3.63;1.55;;;20.20;67.00;;;;;;5058609;28;20036;-60
2022/06/09 05:46:34;;;;;;;3.15;1.50;;;20.30;67.30;;;;;;5062220;28;20105;-63
2022/06/09 05:49:00;;;;;;;3.33;1.70;;;20.30;67.00;;;;;;5060676;28;20115;-64
2022/06/09 05:51:26;;;;;;;4.55;1.70;;;20.20;67.60;;;;;;5061686;28;20101;-67
2022/06/09 05:53:52;;;;;;;4.90;2.17;;;20.30;67.10;;;;;;5067337;28;20024;-62
2022/06/09 05:56:19;;;;;;;4.97;1.30;;;20.30;67.40;;;;;;5055133;28;20029;-63
2022/06/09 05:58:46;;;;;;;5.75;1.77;;;20.40;67.60;;;;;;5054701;28;20036;-63
2022/06/09 06:01:13;;;;;;;4.05;1.40;;;20.50;67.10;;;;;;5041917;28;20575;-64
2022/06/09 06:03:40;;;;;;;4.72;1.75;;;20.60;66.70;;;;;;5067342;28;20055;-64
2022/06/09 06:08:51;;;;;;;4.45;1.70;;;20.50;66.70;;;;;;5057105;28;20488;-63
2022/06/09 06:11:17;;;;;;;3.72;1.55;;;20.70;66.20;;;;;;5065301;28;20016;-64
2022/06/09 06:13:44;;;;;;;4.88;1.60;;;20.80;65.80;;;;;;5042203;28;20029;-63
2022/06/09 06:16:10;;;;;;;5.70;1.67;;;21.00;65.30;;;;;;5060895;28;20052;-63
2022/06/09 06:18:36;;;;;;;4.10;1.80;;;21.10;65.10;;;;;;5071722;28;20030;-64
2022/06/09 06:21:02;;;;;;;3.45;1.40;;;21.20;65.20;;;;;;5067602;28;20509;-64
2022/06/09 06:23:27;;;;;;;5.30;1.73;;;21.10;64.60;;;;;;5064074;28;20441;-62
2022/06/09 06:25:56;;;;;;;6.30;1.67;;;21.40;64.00;;;;;;5054543;28;20025;-58
2022/06/09 06:28:23;;;;;;;8.63;2.17;;;21.40;63.50;;;;;;5050705;28;20040;-62
2022/06/09 06:30:49;;;;;;;8.13;1.52;;;21.60;63.00;;;;;;5052749;28;20446;-64
2022/06/09 06:33:16;;;;;;;3.47;1.60;;;21.80;62.70;;;;;;5069625;28;20013;-64
2022/06/09 06:35:41;;;;;;;4.88;1.50;;;22.00;62.00;;;;;;5064745;28;20024;-63
2022/06/09 06:38:07;;;;;;;7.60;1.58;;;22.20;61.00;;;;;;5066196;28;20025;-64
2022/06/09 06:40:33;;;;;;;7.63;1.88;;;22.30;60.90;;;;;;5064782;28;20028;-64
2022/06/09 06:42:58;;;;;;;4.90;2.13;;;22.50;60.20;;;;;;5046136;28;20161;-61
2022/06/09 06:45:27;;;;;;;7.78;1.70;;;22.50;59.90;;;;;;5058855;28;20072;-64
2022/06/09 06:47:56;;;;;;;9.82;1.67;;;22.60;59.70;;;;;;5055892;28;20067;-64
2022/06/09 06:50:23;;;;;;;7.57;1.80;;;22.60;59.50;;;;;;5069669;28;20473;-65
2022/06/09 06:52:49;;;;;;;9.77;1.80;;;22.70;59.40;;;;;;5065333;28;20138;-66
2022/06/09 06:55:17;;;;;;;5.45;1.90;;;22.70;58.90;;;;;;5070385;28;20438;-65
2022/06/09 06:57:43;;;;;;;5.15;1.70;;;22.60;59.30;;;;;;5044473;28;20107;-64
2022/06/09 07:00:13;;;;;;;6.88;1.65;;;22.60;59.30;;;;;;5054741;28;20021;-65
2022/06/09 07:02:39;;;;;;;3.53;1.85;;;22.40;59.60;;;;;;5066386;28;20028;-64
2022/06/09 07:05:05;;;;;;;5.45;1.77;;;22.30;60.00;;;;;;5059774;28;20365;-64
2022/06/09 07:07:31;;;;;;;4.07;1.60;;;22.10;60.30;;;;;;5045451;28;20032;-65
2022/06/09 07:09:57;;;;;;;5.68;2.38;;;22.10;60.40;;;;;;5064381;28;20040;-67
2022/06/09 07:12:22;;;;;;;5.47;1.75;;;22.20;60.50;;;;;;5065462;28;20087;-67
2022/06/09 07:14:48;;;;;;;4.95;1.70;;;22.30;60.40;;;;;;5061005;28;20029;-64
2022/06/09 07:17:14;;;;;;;4.43;1.63;;;22.20;60.10;;;;;;5067466;28;20392;-65
2022/06/09 07:19:39;;;;;;;5.50;1.30;;;22.20;59.90;;;;;;5066827;28;20090;-62
2022/06/09 07:22:06;;;;;;;4.07;1.30;;;22.10;60.40;;;;;;5041601;28;20025;-62
2022/06/09 07:24:32;;;;;;;5.03;1.33;;;22.00;60.60;;;;;;5068321;28;20441;-61
2022/06/09 07:26:58;;;;;;;3.05;1.70;;;22.00;60.40;;;;;;5064965;28;20032;-64
2022/06/09 07:29:25;;;;;;;11.32;1.50;;;21.90;60.80;;;;;;5062495;28;20036;-66
2022/06/09 07:31:52;;;;;;;5.68;1.83;;;21.80;61.30;;;;;;5064040;28;20448;-64
2022/06/09 07:34:18;;;;;;;4.97;1.50;;;22.00;60.80;;;;;;5040579;28;20085;-68
2022/06/09 07:36:44;;;;;;;3.95;1.55;;;22.30;60.20;;;;;;5041941;28;20477;-68
2022/06/09 07:39:10;;;;;;;3.35;1.80;;;22.50;59.50;;;;;;5066757;28;20043;-66
2022/06/09 07:41:36;;;;;;;7.30;1.70;;;22.80;58.80;;;;;;5040938;28;20076;-67
2022/06/09 07:44:05;;;;;;;5.38;1.60;;;23.00;58.10;;;;;;5054309;28;20041;-66
2022/06/09 07:46:31;;;;;;;5.68;1.70;;;23.00;57.70;;;;;;5057373;28;20045;-67
2022/06/09 07:48:58;;;;;;;5.15;1.50;;;23.00;57.80;;;;;;5036692;28;20071;-67
2022/06/09 07:51:25;;;;;;;13.85;1.70;;;23.00;57.90;;;;;;5070591;28;20115;-66
2022/06/09 07:53:52;;;;;;;6.05;1.95;;;23.10;57.60;;;;;;5063578;28;20017;-62
2022/06/09 07:56:18;;;;;;;7.32;1.50;;;23.10;57.60;;;;;;5066821;28;20429;-66
2022/06/09 07:58:45;;;;;;;4.03;1.73;;;23.20;57.60;;;;;;5037225;28;20037;-68
2022/06/09 08:01:12;;;;;;;6.85;2.05;;;23.50;57.10;;;;;;5059691;28;20029;-56
2022/06/09 08:03:41;;;;;;;3.95;1.75;;;23.60;56.60;;;;;;5063326;28;20505;-57
2022/06/09 08:06:08;;;;;;;3.38;1.30;;;24.10;55.60;;;;;;5055509;28;20044;-57
2022/06/09 08:08:34;;;;;;;3.75;1.50;;;24.30;54.30;;;;;;5063221;28;20033;-59
2022/06/09 08:11:00;;;;;;;3.38;1.35;;;24.50;54.50;;;;;;5057398;28;20449;-60
2022/06/09 08:13:27;;;;;;;4.15;1.60;;;24.40;53.60;;;;;;5055024;28;20033;-56
2022/06/09 08:15:54;;;;;;;2.38;1.42;;;24.10;53.90;;;;;;5062966;28;20029;-59
2022/06/09 08:18:20;;;;;;;5.13;1.33;;;23.80;54.90;;;;;;5042794;28;20041;-60
2022/06/09 08:20:46;;;;;;;3.80;1.45;;;23.30;55.60;;;;;;5040862;28;20465;-59
2022/06/09 08:23:25;;;;;;;4.15;1.52;;;22.90;56.70;;;;;;5062233;28;20035;-58
2022/06/09 08:25:54;;;;;;;2.33;1.38;;;22.80;57.60;;;;;;5069923;28;20023;-59
2022/06/09 08:28:21;;;;;;;3.97;1.58;;;22.80;57.50;;;;;;5071486;28;20405;-59
2022/06/09 08:30:51;;;;;;;2.25;1.40;;;23.10;57.00;;;;;;5064904;28;20085;-61
2022/06/09 08:33:18;;;;;;;5.65;1.50;;;23.20;56.70;;;;;;5052866;28;20028;-60
2022/06/09 08:35:44;;;;;;;3.97;1.35;;;23.20;56.60;;;;;;5062317;28;20217;-60
2022/06/09 08:38:11;;;;;;;5.93;1.48;;;23.00;56.60;;;;;;5069179;28;20211;-59
2022/06/09 08:40:45;;;;;;;3.47;1.75;;;23.00;57.10;;;;;;5063641;28;20067;-57
2022/06/09 08:43:36;;;;;;;3.65;1.70;;;23.00;56.90;;;;;;5046765;28;20032;-61
2022/06/09 08:46:27;;;;;;;4.35;1.20;;;23.00;57.10;;;;;;5066003;28;20044;-61
2022/06/09 08:48:55;;;;;;;4.32;1.52;;;22.80;57.60;;;;;;5068144;28;20059;-62
2022/06/09 08:51:39;;;;;;;9.15;1.48;;;22.70;57.80;;;;;;5066030;28;20103;-59
2022/06/09 08:54:13;;;;;;;4.90;1.40;;;22.40;58.60;;;;;;5073035;28;20039;-59
2022/06/09 08:56:39;;;;;;;5.00;1.33;;;22.10;59.10;;;;;;5061031;28;20071;-56
2022/06/09 08:59:15;;;;;;;5.28;1.60;;;22.00;59.50;;;;;;5042215;28;20097;-60
2022/06/09 09:01:50;;;;;;;2.70;1.52;;;22.00;59.80;;;;;;5068105;28;20056;-61
2022/06/09 09:04:22;;;;;;;5.05;1.60;;;21.90;59.90;;;;;;5053176;28;20024;-57
2022/06/09 09:07:03;;;;;;;6.30;1.55;;;22.00;60.70;;;;;;5061189;28;20033;-61
2022/06/09 09:09:31;;;;;;;6.35;1.75;;;22.10;59.80;;;;;;5061415;28;20484;-59
2022/06/09 09:12:25;;;;;;;3.97;1.30;;;21.90;60.00;;;;;;5069961;28;20376;-58
2022/06/09 09:14:55;;;;;;;6.97;2.03;;;21.80;60.30;;;;;;5066792;28;20037;-61
2022/06/09 09:17:38;;;;;;;3.63;1.63;;;21.60;60.70;;;;;;5067818;28;20439;-58
2022/06/09 09:20:23;;;;;;;3.87;1.90;;;21.60;61.00;;;;;;5069587;28;20029;-62
2022/06/09 09:23:13;;;;;;;7.15;1.60;;;21.70;60.90;;;;;;5046903;28;20024;-56
2022/06/09 09:25:44;;;;;;;7.30;1.50;;;21.70;60.90;;;;;;5071550;28;20130;-60
2022/06/09 09:28:21;;;;;;;9.90;2.10;;;21.80;60.80;;;;;;5067363;28;20020;-57
2022/06/09 09:31:18;;;;;;;6.28;1.83;;;21.90;60.80;;;;;;5073272;28;20029;-60
2022/06/09 09:33:46;;;;;;;3.85;1.50;;;21.90;60.60;;;;;;5063277;28;20127;-59
2022/06/09 09:36:25;;;;;;;2.60;1.30;;;21.90;60.80;;;;;;5061329;28;20032;-58
2022/06/09 09:38:58;;;;;;;4.10;1.83;;;21.80;60.80;;;;;;5069829;28;20035;-59
2022/06/09 09:41:36;;;;;;;7.32;2.22;;;21.90;61.10;;;;;;5045055;28;20031;-57
2022/06/09 09:44:24;;;;;;;3.58;1.60;;;22.00;61.00;;;;;;5054198;28;20460;-57
2022/06/09 09:46:59;;;;;;;4.50;1.65;;;22.00;61.10;;;;;;5083011;28;20057;-60
2022/06/09 09:49:44;;;;;;;3.85;1.85;;;21.90;61.30;;;;;;5077544;28;20055;-59
2022/06/09 09:52:34;;;;;;;6.25;2.00;;;21.70;62.20;;;;;;5078103;28;20024;-62
2022/06/09 09:55:00;;;;;;;5.15;2.53;;;21.90;62.20;;;;;;5090735;28;20031;-61
2022/06/09 09:57:28;;;;;;;4.72;1.70;;;22.20;61.30;;;;;;5090158;28;20403;-55
2022/06/09 09:59:57;;;;;;;4.97;2.22;;;22.60;60.90;;;;;;5088331;28;20058;-60
2022/06/09 10:08:41;;;;;;;2.67;1.67;;;23.40;58.00;;;;;;5087605;28;20120;-59
2022/06/09 10:11:53;;;;;;;5.13;1.67;;;23.60;57.80;;;;;;5082090;28;20171;-61
2022/06/09 10:14:56;;;;;;;2.25;1.40;;;23.50;57.60;;;;;;4990999;28;20523;-59
2022/06/09 10:17:57;;;;;;;2.03;1.40;;;23.80;57.70;;;;;;5045372;28;20037;-63
2022/06/09 10:20:52;;;;;;;6.80;1.63;;;24.60;55.80;;;;;;5043243;28;20036;-64
2022/06/09 10:23:31;;;;;;;4.55;1.63;;;24.80;54.40;;;;;;5026839;28;20104;-64
2022/06/09 10:26:10;;;;;;;5.00;1.50;;;25.10;54.50;;;;;;5030655;28;20029;-69
2022/06/09 10:28:54;;;;;;;3.72;1.38;;;25.30;54.60;;;;;;5042058;28;20037;-66
2022/06/09 10:31:44;;;;;;;3.05;1.67;;;25.10;54.00;;;;;;5043179;28;20036;-68
2022/06/09 10:34:43;;;;;;;4.45;1.88;;;25.10;54.40;;;;;;5039926;28;20125;-70
2022/06/09 10:37:25;;;;;;;8.23;2.70;;;24.90;54.50;;;;;;5032834;28;20033;-66
2022/06/09 10:40:21;;;;;;;4.32;1.42;;;24.60;54.80;;;;;;5040919;28;20075;-68
2022/06/09 10:43:00;;;;;;;1.60;1.20;;;24.30;55.80;;;;;;5045545;28;20030;-65
2022/06/09 10:45:43;;;;;;;6.35;1.40;;;24.00;56.00;;;;;;5030667;28;20263;-69
2022/06/09 10:57:01;;;;;;;4.85;1.80;;;23.40;57.60;;;;;;5084757;28;20134;-66
2022/06/09 10:59:34;;;;;;;6.70;1.80;;;23.50;57.60;;;;;;5085339;28;20073;-67
2022/06/09 11:02:01;;;;;;;2.67;1.65;;;23.70;57.10;;;;;;5081781;28;20615;-66
2022/06/09 11:04:35;;;;;;;2.78;1.55;;;23.50;56.80;;;;;;5078719;28;20032;-65
2022/06/09 11:07:23;;;;;;;3.90;1.33;;;23.50;57.30;;;;;;5076782;28;20036;-65
2022/06/09 11:09:58;;;;;;;5.93;1.30;;;23.30;57.30;;;;;;5078974;28;20030;-66
2022/06/09 11:12:42;;;;;;;4.78;1.52;;;23.30;57.70;;;;;;5076495;28;20021;-66
2022/06/09 11:15:25;;;;;;;8.02;1.30;;;23.10;58.00;;;;;;5083227;28;20441;-65
2022/06/09 11:17:59;;;;;;;4.23;1.50;;;23.10;58.00;;;;;;5085911;28;20036;-66
2022/06/09 11:20:46;;;;;;;5.47;1.70;;;23.10;58.10;;;;;;5082057;28;20036;-66
2022/06/09 11:23:44;;;;;;;2.90;1.23;;;23.20;58.10;;;;;;5084934;28;20031;-78
2022/06/09 11:26:30;;;;;;;3.90;1.75;;;23.20;57.60;;;;;;5075516;28;20028;-74
2022/06/09 11:29:33;;;;;;;6.47;1.52;;;23.10;58.10;;;;;;5082404;28;20024;-65
2022/06/09 11:31:58;;;;;;;5.75;1.40;;;23.00;58.50;;;;;;5087134;28;20121;-65
2022/06/09 11:34:51;;;;;;;5.45;1.50;;;23.00;58.30;;;;;;5079332;28;20030;-69
2022/06/09 11:37:28;;;;;;;4.10;1.52;;;23.10;58.60;;;;;;5082096;28;20114;-66
2022/06/09 11:40:33;;;;;;;3.42;1.40;;;23.20;58.10;;;;;;5077504;28;20038;-66
2022/06/09 11:43:43;;;;;;;13.00;1.50;;;23.20;58.10;;;;;;5079992;28;20034;-65
2022/06/09 11:46:31;;;;;;;3.20;1.40;;;23.30;58.80;;;;;;5002255;28;20526;-66
2022/06/09 11:49:03;;;;;;;4.65;1.58;;;23.20;58.90;;;;;;4993108;28;20082;-64
2022/06/09 11:51:31;;;;;;;6.68;1.58;;;23.00;59.70;;;;;;4991587;28;20038;-64
2022/06/09 11:54:06;;;;;;;3.97;1.55;;;23.00;60.00;;;;;;5004490;28;20053;-65
2022/06/09 11:56:36;;;;;;;8.32;6.35;;;23.10;59.50;;;;;;4989540;28;20042;-66
2022/06/09 11:59:23;;;;;;;4.40;1.30;;;23.20;59.60;;;;;;4987544;28;20153;-64
2022/06/09 12:01:55;;;;;;;3.55;1.50;;;23.10;59.20;;;;;;4998805;28;20127;-66
2022/06/09 12:05:08;;;;;;;1.95;1.30;;;23.00;59.30;;;;;;4998371;28;20061;-72
2022/06/09 12:07:50;;;;;;;3.80;1.35;;;23.10;59.30;;;;;;4988630;28;20033;-65
2022/06/09 12:10:47;;;;;;;4.10;1.63;;;23.30;58.60;;;;;;4987850;28;20042;-73
2022/06/09 12:13:18;;;;;;;3.58;1.40;;;23.40;58.20;;;;;;4983084;28;20446;-65
2022/06/09 12:16:16;;;;;;;5.35;1.40;;;23.40;58.10;;;;;;5001650;28;20073;-64
2022/06/09 12:18:58;;;;;;;4.88;2.25;;;23.30;58.40;;;;;;4987578;28;20030;-65
2022/06/09 12:21:37;;;;;;;3.83;1.58;;;23.00;58.80;;;;;;5004677;28;20481;-64
2022/06/09 12:24:21;;;;;;;4.85;1.58;;;22.80;59.10;;;;;;5085945;28;20055;-66
2022/06/09 12:26:55;;;;;;;5.60;2.17;;;22.70;59.40;;;;;;5081136;28;20040;-66
2022/06/09 12:29:41;;;;;;;7.88;1.52;;;22.70;59.70;;;;;;5078293;28;20027;-65
2022/06/09 12:32:10;;;;;;;7.32;1.80;;;22.90;59.70;;;;;;5080233;28;20465;-65
2022/06/09 12:34:51;;;;;;;2.72;1.40;;;23.10;59.30;;;;;;5084178;28;20020;-66
2022/06/09 12:37:31;;;;;;;5.20;1.50;;;23.00;59.10;;;;;;5080799;28;20032;-70
2022/06/09 12:40:12;;;;;;;4.65;1.75;;;23.10;59.40;;;;;;5087633;28;20032;-65
2022/06/09 12:42:48;;;;;;;4.13;1.70;;;23.20;59.30;;;;;;5087763;28;20047;-63
2022/06/09 12:45:19;;;;;;;6.93;1.90;;;23.20;59.50;;;;;;5066876;28;20040;-67
2022/06/09 12:47:53;;;;;;;2.70;1.40;;;23.00;59.90;;;;;;5043623;28;20075;-65
2022/06/09 12:50:39;;;;;;;2.45;1.58;;;22.90;60.20;;;;;;5040213;28;20119;-75
2022/06/09 12:53:07;;;;;;;5.97;1.75;;;22.80;60.50;;;;;;5043183;28;20382;-64
2022/06/09 12:55:37;;;;;;;7.28;2.22;;;22.60;60.90;;;;;;5044003;28;20029;-65
2022/06/09 12:58:18;;;;;;;5.20;1.58;;;22.60;61.60;;;;;;5060073;28;20532;-64
2022/06/09 13:00:52;;;;;;;3.92;1.50;;;22.60;61.50;;;;;;5067861;28;20511;-65
2022/06/09 13:03:34;;;;;;;3.30;1.67;;;22.50;62.00;;;;;;5063070;28;20102;-64
2022/06/09 13:06:29;;;;;;;3.53;2.25;;;22.40;62.40;;;;;;5058777;28;20119;-64
2022/06/09 13:09:29;;;;;;;6.50;1.83;;;22.40;63.30;;;;;;5064162;28;20127;-65
2022/06/09 13:15:06;;;;;;;3.47;1.40;;;22.20;63.90;;;;;;5046734;28;20031;-65
2022/06/09 13:17:37;;;;;;;7.82;1.65;;;22.00;64.10;;;;;;5070104;28;20028;-65
2022/06/09 13:20:11;;;;;;;5.28;2.00;;;22.00;64.60;;;;;;5059040;28;20032;-65
2022/06/09 13:22:38;;;;;;;5.38;2.55;;;22.00;65.00;;;;;;5042791;28;20036;-64
2022/06/09 13:25:10;;;;;;;8.48;2.08;;;22.10;64.70;;;;;;5060887;28;20056;-65
2022/06/09 13:27:36;;;;;;;3.97;1.77;;;22.30;64.50;;;;;;5069051;28;20032;-65
2022/06/09 13:30:28;;;;;;;3.42;1.90;;;22.30;64.20;;;;;;5045898;28;20033;-65
2022/06/09 13:32:54;;;;;;;4.47;1.98;;;22.40;64.20;;;;;;5059926;28;20036;-66
2022/06/09 13:35:37;;;;;;;6.03;2.15;;;22.20;64.40;;;;;;5064516;28;20024;-69
2022/06/09 13:38:18;;;;;;;5.30;2.42;;;22.20;65.30;;;;;;5040086;28;20025;-66
2022/06/09 13:41:00;;;;;;;7.32;2.03;;;22.20;65.10;;;;;;5045583;28;20033;-72
2022/06/09 13:43:35;;;;;;;4.38;1.80;;;22.20;65.20;;;;;;5068013;28;20130;-65